sensor_id;sensor_type;location;lat;lon;timestamp;pressure;altitude;pressure_sealevel;temperature;humidity
31538;BME280;18147;51.952;6.146;2024-03-02T00:00:14;99836.53;;;8.28;100.00
31538;BME280;18147;51.952;6.146;2024-03-02T00:02:41;99834.72;;;8.54;100.00
31538;BME280;18147;51.952;6.146;2024-03-02T00:05:07;99845.47;;;8.40;100.00
31538;BME280;18147;51.952;6.146;2024-03-02T00:07:33;99825.06;;;8.53;100.00
31538;BME280;18147;51.952;6.146;2024-03-02T00:09:58;99828.06;;;8.49;100.00
31538;BME280;18147;51.952;6.146;2024-03-02T00:12:24;99828.06;;;8.49;100.00
31538;BME280;18147;51.952;6.146;2024-03-02T00:14:51;99819.97;;;8.50;100.00
31538;BME280;18147;51.952;6.146;2024-03-02T00:17:24;99833.41;;;8.73;100.00
31538;BME280;18147;51.952;6.146;2024-03-02T00:19:50;99830.75;;;8.73;100.00
31538;BME280;18147;51.952;6.146;2024-03-02T00:22:15;99835.47;;;8.56;100.00
31538;BME280;18147;51.952;6.146;2024-03-02T00:24:41;99827.72;;;8.41;100.00
31538;BME280;18147;51.952;6.146;2024-03-02T00:27:07;99839.63;;;8.48;100.00
31538;BME280;18147;51.952;6.146;2024-03-02T00:29:32;99826.00;;;8.52;100.00
31538;BME280;18147;51.952;6.146;2024-03-02T00:32:01;99823.66;;;8.61;100.00
31538;BME280;18147;51.952;6.146;2024-03-02T00:34:26;99833.38;;;8.36;100.00
31538;BME280;18147;51.952;6.146;2024-03-02T00:36:52;99833.03;;;8.41;100.00
31538;BME280;18147;51.952;6.146;2024-03-02T00:39:18;99828.59;;;8.41;100.00
31538;BME280;18147;51.952;6.146;2024-03-02T00:41:43;99825.91;;;8.54;100.00
31538;BME280;18147;51.952;6.146;2024-03-02T00:44:13;99823.13;;;8.55;100.00
31538;BME280;18147;51.952;6.146;2024-03-02T00:46:41;99811.84;;;8.65;100.00
31538;BME280;18147;51.952;6.146;2024-03-02T00:49:23;99810.06;;;8.52;100.00
31538;BME280;18147;51.952;6.146;2024-03-02T00:51:52;99814.22;;;8.56;100.00
31538;BME280;18147;51.952;6.146;2024-03-02T00:54:22;99816.41;;;8.75;100.00
31538;BME280;18147;51.952;6.146;2024-03-02T00:56:50;99829.63;;;8.64;100.00
31538;BME280;18147;51.952;6.146;2024-03-02T00:59:16;99825.94;;;8.78;100.00
31538;BME280;18147;51.952;6.146;2024-03-02T01:01:42;99818.34;;;8.61;100.00
31538;BME280;18147;51.952;6.146;2024-03-02T01:04:08;99834.22;;;8.86;100.00
31538;BME280;18147;51.952;6.146;2024-03-02T01:06:35;99831.03;;;8.94;100.00
31538;BME280;18147;51.952;6.146;2024-03-02T01:09:00;99840.91;;;8.92;100.00
31538;BME280;18147;51.952;6.146;2024-03-02T01:11:26;99843.84;;;8.63;100.00
31538;BME280;18147;51.952;6.146;2024-03-02T01:13:51;99840.38;;;8.87;100.00
31538;BME280;18147;51.952;6.146;2024-03-02T01:16:17;99846.84;;;8.95;100.00
31538;BME280;18147;51.952;6.146;2024-03-02T01:18:43;99840.91;;;8.92;100.00
31538;BME280;18147;51.952;6.146;2024-03-02T01:21:08;99842.41;;;8.83;100.00
31538;BME280;18147;51.952;6.146;2024-03-02T01:23:34;99865.00;;;9.01;100.00
31538;BME280;18147;51.952;6.146;2024-03-02T01:25:59;99856.31;;;8.99;100.00
31538;BME280;18147;51.952;6.146;2024-03-02T01:28:24;99859.69;;;9.01;100.00
31538;BME280;18147;51.952;6.146;2024-03-02T01:30:50;99867.47;;;9.04;100.00
31538;BME280;18147;51.952;6.146;2024-03-02T01:33:19;99867.00;;;9.11;100.00
31538;BME280;18147;51.952;6.146;2024-03-02T01:35:45;99870.22;;;9.03;100.00
31538;BME280;18147;51.952;6.146;2024-03-02T01:38:10;99882.97;;;9.11;100.00
31538;BME280;18147;51.952;6.146;2024-03-02T01:40:37;99885.31;;;9.02;100.00
31538;BME280;18147;51.952;6.146;2024-03-02T01:43:06;99882.06;;;8.99;100.00
31538;BME280;18147;51.952;6.146;2024-03-02T01:45:32;99883.69;;;8.89;100.00
31538;BME280;18147;51.952;6.146;2024-03-02T01:47:58;99910.34;;;8.87;100.00
31538;BME280;18147;51.952;6.146;2024-03-02T01:50:28;99906.31;;;8.81;100.00
31538;BME280;18147;51.952;6.146;2024-03-02T01:52:55;99905.16;;;8.73;100.00
31538;BME280;18147;51.952;6.146;2024-03-02T01:55:20;99908.88;;;8.83;100.00
31538;BME280;18147;51.952;6.146;2024-03-02T01:57:46;99915.13;;;8.95;100.00
31538;BME280;18147;51.952;6.146;2024-03-02T02:00:13;99915.22;;;8.93;100.00
31538;BME280;18147;51.952;6.146;2024-03-02T02:02:39;99909.16;;;9.04;100.00
31538;BME280;18147;51.952;6.146;2024-03-02T02:05:04;99914.47;;;9.04;100.00
31538;BME280;18147;51.952;6.146;2024-03-02T02:07:30;99910.34;;;8.87;100.00
31538;BME280;18147;51.952;6.146;2024-03-02T02:09:56;99892.84;;;9.08;100.00
31538;BME280;18147;51.952;6.146;2024-03-02T02:12:22;99893.22;;;9.04;100.00
31538;BME280;18147;51.952;6.146;2024-03-02T02:14:48;99889.66;;;9.03;100.00
31538;BME280;18147;51.952;6.146;2024-03-02T02:17:14;99884.66;;;9.12;100.00
31538;BME280;18147;51.952;6.146;2024-03-02T02:19:41;99889.44;;;9.19;100.00
31538;BME280;18147;51.952;6.146;2024-03-02T02:22:06;99883.94;;;9.10;100.00
31538;BME280;18147;51.952;6.146;2024-03-02T02:24:32;99888.22;;;8.99;100.00
31538;BME280;18147;51.952;6.146;2024-03-02T02:26:57;99887.97;;;9.02;100.00
31538;BME280;18147;51.952;6.146;2024-03-02T02:29:23;99883.16;;;9.07;100.00
31538;BME280;18147;51.952;6.146;2024-03-02T02:31:48;99882.50;;;9.17;100.00
31538;BME280;18147;51.952;6.146;2024-03-02T02:34:14;99873.38;;;9.08;100.00
31538;BME280;18147;51.952;6.146;2024-03-02T02:36:40;99870.50;;;9.11;100.00
31538;BME280;18147;51.952;6.146;2024-03-02T02:39:07;99869.69;;;8.98;100.00
31538;BME280;18147;51.952;6.146;2024-03-02T02:41:33;99856.84;;;8.92;100.00
31538;BME280;18147;51.952;6.146;2024-03-02T02:43:59;99856.50;;;9.09;100.00
31538;BME280;18147;51.952;6.146;2024-03-02T02:46:24;99858.53;;;8.93;100.00
31538;BME280;18147;51.952;6.146;2024-03-02T02:48:50;99858.50;;;9.05;100.00
31538;BME280;18147;51.952;6.146;2024-03-02T02:51:16;99865.31;;;9.10;100.00
31538;BME280;18147;51.952;6.146;2024-03-02T02:53:42;99860.41;;;9.03;100.00
31538;BME280;18147;51.952;6.146;2024-03-02T02:56:07;99851.25;;;9.07;100.00
31538;BME280;18147;51.952;6.146;2024-03-02T02:58:33;99856.69;;;9.06;100.00
31538;BME280;18147;51.952;6.146;2024-03-02T03:00:58;99875.84;;;9.11;100.00
31538;BME280;18147;51.952;6.146;2024-03-02T03:03:24;99869.38;;;9.02;100.00
31538;BME280;18147;51.952;6.146;2024-03-02T03:05:49;99870.13;;;9.04;100.00
31538;BME280;18147;51.952;6.146;2024-03-02T03:08:15;99865.41;;;9.08;100.00
31538;BME280;18147;51.952;6.146;2024-03-02T03:10:43;99859.19;;;8.96;100.00
31538;BME280;18147;51.952;6.146;2024-03-02T03:13:09;99858.50;;;9.05;100.00
31538;BME280;18147;51.952;6.146;2024-03-02T03:15:35;99866.63;;;9.04;100.00
31538;BME280;18147;51.952;6.146;2024-03-02T03:18:04;99865.75;;;9.03;100.00
31538;BME280;18147;51.952;6.146;2024-03-02T03:20:30;99869.19;;;8.93;100.00
31538;BME280;18147;51.952;6.146;2024-03-02T03:22:58;99858.63;;;9.04;100.00
31538;BME280;18147;51.952;6.146;2024-03-02T03:25:24;99841.03;;;8.90;100.00
31538;BME280;18147;51.952;6.146;2024-03-02T03:27:49;99850.47;;;8.94;100.00
31538;BME280;18147;51.952;6.146;2024-03-02T03:30:15;99859.84;;;8.87;100.00
31538;BME280;18147;51.952;6.146;2024-03-02T03:32:41;99857.09;;;8.89;100.00
31538;BME280;18147;51.952;6.146;2024-03-02T03:35:07;99869.94;;;8.82;100.00
31538;BME280;18147;51.952;6.146;2024-03-02T03:37:32;99870.72;;;8.84;100.00
31538;BME280;18147;51.952;6.146;2024-03-02T03:40:01;99867.75;;;8.76;100.00
31538;BME280;18147;51.952;6.146;2024-03-02T03:42:28;99869.44;;;8.77;100.00
31538;BME280;18147;51.952;6.146;2024-03-02T03:44:53;99863.91;;;8.67;100.00
31538;BME280;18147;51.952;6.146;2024-03-02T03:47:18;99872.22;;;8.63;100.00
31538;BME280;18147;51.952;6.146;2024-03-02T03:49:45;99878.63;;;8.60;100.00
31538;BME280;18147;51.952;6.146;2024-03-02T03:52:10;99883.28;;;8.56;100.00
31538;BME280;18147;51.952;6.146;2024-03-02T03:54:38;99879.13;;;8.52;100.00
31538;BME280;18147;51.952;6.146;2024-03-02T03:57:04;99886.38;;;8.50;100.00
31538;BME280;18147;51.952;6.146;2024-03-02T03:59:30;99898.06;;;8.48;100.00
31538;BME280;18147;51.952;6.146;2024-03-02T04:01:55;99897.84;;;8.51;100.00
31538;BME280;18147;51.952;6.146;2024-03-02T04:04:21;99903.16;;;8.38;100.00
31538;BME280;18147;51.952;6.146;2024-03-02T04:06:46;99907.50;;;8.26;100.00
31538;BME280;18147;51.952;6.146;2024-03-02T04:09:12;99909.97;;;8.42;100.00
31538;BME280;18147;51.952;6.146;2024-03-02T04:11:37;99903.81;;;8.42;100.00
31538;BME280;18147;51.952;6.146;2024-03-02T04:14:03;99901.91;;;8.44;100.00
31538;BME280;18147;51.952;6.146;2024-03-02T04:16:28;99913.06;;;8.36;100.00
31538;BME280;18147;51.952;6.146;2024-03-02T04:18:54;99924.59;;;8.22;100.00
31538;BME280;18147;51.952;6.146;2024-03-02T04:21:19;99932.66;;;8.21;100.00
31538;BME280;18147;51.952;6.146;2024-03-02T04:23:45;99923.75;;;8.22;100.00
31538;BME280;18147;51.952;6.146;2024-03-02T04:26:10;99917.91;;;8.17;100.00
31538;BME280;18147;51.952;6.146;2024-03-02T04:28:36;99914.06;;;8.08;100.00
31538;BME280;18147;51.952;6.146;2024-03-02T04:31:01;99908.84;;;8.07;100.00
31538;BME280;18147;51.952;6.146;2024-03-02T04:33:27;99896.84;;;8.01;100.00
31538;BME280;18147;51.952;6.146;2024-03-02T04:35:52;99902.16;;;7.88;100.00
31538;BME280;18147;51.952;6.146;2024-03-02T04:38:18;99902.47;;;7.96;100.00
31538;BME280;18147;51.952;6.146;2024-03-02T04:40:43;99916.28;;;7.89;100.00
31538;BME280;18147;51.952;6.146;2024-03-02T04:43:09;99910.72;;;7.79;100.00
31538;BME280;18147;51.952;6.146;2024-03-02T04:45:37;99924.78;;;7.94;100.00
31538;BME280;18147;51.952;6.146;2024-03-02T04:48:03;99930.41;;;7.89;100.00
31538;BME280;18147;51.952;6.146;2024-03-02T04:50:28;99945.22;;;7.79;100.00
31538;BME280;18147;51.952;6.146;2024-03-02T04:52:54;99927.94;;;7.86;100.00
31538;BME280;18147;51.952;6.146;2024-03-02T04:55:20;99931.00;;;7.93;100.00
31538;BME280;18147;51.952;6.146;2024-03-02T04:58:02;99952.59;;;7.88;100.00
31538;BME280;18147;51.952;6.146;2024-03-02T05:00:27;99951.88;;;7.99;100.00
31538;BME280;18147;51.952;6.146;2024-03-02T05:02:53;99948.03;;;8.03;100.00
31538;BME280;18147;51.952;6.146;2024-03-02T05:05:20;99941.25;;;7.99;100.00
31538;BME280;18147;51.952;6.146;2024-03-02T05:07:45;99942.09;;;7.99;100.00
31538;BME280;18147;51.952;6.146;2024-03-02T05:10:11;99944.94;;;7.96;100.00
31538;BME280;18147;51.952;6.146;2024-03-02T05:12:37;99953.69;;;7.98;100.00
31538;BME280;18147;51.952;6.146;2024-03-02T05:15:13;99952.41;;;8.04;100.00
31538;BME280;18147;51.952;6.146;2024-03-02T05:17:40;99951.41;;;7.92;100.00
31538;BME280;18147;51.952;6.146;2024-03-02T05:20:06;99954.59;;;7.97;100.00
31538;BME280;18147;51.952;6.146;2024-03-02T05:22:33;99955.94;;;7.77;100.00
31538;BME280;18147;51.952;6.146;2024-03-02T05:25:00;99962.31;;;7.75;100.00
31538;BME280;18147;51.952;6.146;2024-03-02T05:27:26;99953.28;;;7.77;100.00
31538;BME280;18147;51.952;6.146;2024-03-02T05:29:52;99963.44;;;7.71;100.00
31538;BME280;18147;51.952;6.146;2024-03-02T05:32:17;99963.16;;;7.75;100.00
31538;BME280;18147;51.952;6.146;2024-03-02T05:34:42;99969.72;;;7.70;100.00
31538;BME280;18147;51.952;6.146;2024-03-02T05:37:08;99959.00;;;7.71;100.00
31538;BME280;18147;51.952;6.146;2024-03-02T05:39:33;99963.00;;;7.64;100.00
31538;BME280;18147;51.952;6.146;2024-03-02T05:41:59;99968.81;;;7.57;100.00
31538;BME280;18147;51.952;6.146;2024-03-02T05:44:24;99970.69;;;7.69;100.00
31538;BME280;18147;51.952;6.146;2024-03-02T05:46:50;99974.47;;;7.65;100.00
31538;BME280;18147;51.952;6.146;2024-03-02T05:49:15;99975.44;;;7.64;100.00
31538;BME280;18147;51.952;6.146;2024-03-02T05:51:41;99982.88;;;7.71;100.00
31538;BME280;18147;51.952;6.146;2024-03-02T05:54:06;99986.06;;;7.76;100.00
31538;BME280;18147;51.952;6.146;2024-03-02T05:56:32;99988.63;;;7.78;100.00
31538;BME280;18147;51.952;6.146;2024-03-02T05:58:58;99994.16;;;7.75;100.00
31538;BME280;18147;51.952;6.146;2024-03-02T06:01:42;99986.84;;;7.78;100.00
31538;BME280;18147;51.952;6.146;2024-03-02T06:04:08;99991.38;;;7.76;100.00
31538;BME280;18147;51.952;6.146;2024-03-02T06:06:34;99991.50;;;7.75;100.00
31538;BME280;18147;51.952;6.146;2024-03-02T06:09:02;100001.44;;;7.71;100.00
31538;BME280;18147;51.952;6.146;2024-03-02T06:11:36;99995.53;;;7.81;100.00
31538;BME280;18147;51.952;6.146;2024-03-02T06:14:07;100000.00;;;7.80;100.00
31538;BME280;18147;51.952;6.146;2024-03-02T06:16:34;100005.06;;;7.70;100.00
31538;BME280;18147;51.952;6.146;2024-03-02T06:18:59;99999.63;;;7.72;100.00
31538;BME280;18147;51.952;6.146;2024-03-02T06:21:25;100004.22;;;7.70;100.00
31538;BME280;18147;51.952;6.146;2024-03-02T06:23:51;100011.47;;;7.53;100.00
31538;BME280;18147;51.952;6.146;2024-03-02T06:26:17;100000.94;;;7.52;100.00
31538;BME280;18147;51.952;6.146;2024-03-02T06:28:43;100011.47;;;7.53;100.00
31538;BME280;18147;51.952;6.146;2024-03-02T06:31:09;100009.72;;;7.52;100.00
31538;BME280;18147;51.952;6.146;2024-03-02T06:33:35;100008.16;;;7.50;100.00
31538;BME280;18147;51.952;6.146;2024-03-02T06:36:01;100014.03;;;7.41;100.00
31538;BME280;18147;51.952;6.146;2024-03-02T06:38:27;100011.56;;;7.38;100.00
31538;BME280;18147;51.952;6.146;2024-03-02T06:40:52;100009.31;;;7.32;100.00
31538;BME280;18147;51.952;6.146;2024-03-02T06:43:18;100012.72;;;7.34;100.00
31538;BME280;18147;51.952;6.146;2024-03-02T06:45:43;100021.94;;;7.28;100.00
31538;BME280;18147;51.952;6.146;2024-03-02T06:48:08;100018.22;;;7.16;100.00
31538;BME280;18147;51.952;6.146;2024-03-02T06:50:34;100027.97;;;7.16;100.00
31538;BME280;18147;51.952;6.146;2024-03-02T06:53:00;100032.91;;;7.08;100.00
31538;BME280;18147;51.952;6.146;2024-03-02T06:55:25;100035.75;;;6.90;100.00
31538;BME280;18147;51.952;6.146;2024-03-02T06:57:51;100029.22;;;6.96;100.00
31538;BME280;18147;51.952;6.146;2024-03-02T07:00:17;100036.31;;;7.10;100.00
31538;BME280;18147;51.952;6.146;2024-03-02T07:02:43;100035.09;;;7.01;100.00
31538;BME280;18147;51.952;6.146;2024-03-02T07:05:10;100034.13;;;7.16;100.00
31538;BME280;18147;51.952;6.146;2024-03-02T07:07:35;100030.69;;;7.43;100.00
31538;BME280;18147;51.952;6.146;2024-03-02T07:10:02;100036.38;;;7.51;100.00
31538;BME280;18147;51.952;6.146;2024-03-02T07:12:28;100039.25;;;7.34;100.00
31538;BME280;18147;51.952;6.146;2024-03-02T07:14:53;100047.09;;;7.35;100.00
31538;BME280;18147;51.952;6.146;2024-03-02T07:17:33;100055.59;;;7.55;100.00
31538;BME280;18147;51.952;6.146;2024-03-02T07:19:59;100050.53;;;7.78;100.00
31538;BME280;18147;51.952;6.146;2024-03-02T07:22:24;100048.25;;;8.14;100.00
31538;BME280;18147;51.952;6.146;2024-03-02T07:24:50;100045.16;;;8.20;100.00
31538;BME280;18147;51.952;6.146;2024-03-02T07:27:16;100042.06;;;8.40;100.00
31538;BME280;18147;51.952;6.146;2024-03-02T07:29:43;100043.44;;;8.46;100.00
31538;BME280;18147;51.952;6.146;2024-03-02T07:32:09;100040.06;;;8.44;100.00
31538;BME280;18147;51.952;6.146;2024-03-02T07:34:34;100049.09;;;8.27;100.00
31538;BME280;18147;51.952;6.146;2024-03-02T07:37:00;100053.25;;;8.18;100.00
31538;BME280;18147;51.952;6.146;2024-03-02T07:39:26;100063.28;;;8.13;100.00
31538;BME280;18147;51.952;6.146;2024-03-02T07:41:52;100067.56;;;8.16;100.00
31538;BME280;18147;51.952;6.146;2024-03-02T07:44:17;100063.28;;;8.13;100.00
31538;BME280;18147;51.952;6.146;2024-03-02T07:46:48;100066.28;;;8.09;100.00
31538;BME280;18147;51.952;6.146;2024-03-02T07:49:16;100072.88;;;8.43;100.00
31538;BME280;18147;51.952;6.146;2024-03-02T07:51:42;100066.28;;;9.63;100.00
31538;BME280;18147;51.952;6.146;2024-03-02T07:54:08;100069.38;;;10.30;100.00
31538;BME280;18147;51.952;6.146;2024-03-02T07:56:34;100055.00;;;10.91;100.00
31538;BME280;18147;51.952;6.146;2024-03-02T07:59:00;100065.97;;;10.28;100.00
31538;BME280;18147;51.952;6.146;2024-03-02T08:01:30;100061.44;;;9.81;100.00
31538;BME280;18147;51.952;6.146;2024-03-02T08:03:57;100067.06;;;9.52;100.00
31538;BME280;18147;51.952;6.146;2024-03-02T08:06:24;100063.78;;;9.36;100.00
31538;BME280;18147;51.952;6.146;2024-03-02T08:09:01;100074.63;;;9.33;100.00
31538;BME280;18147;51.952;6.146;2024-03-02T08:11:30;100070.06;;;9.35;100.00
31538;BME280;18147;51.952;6.146;2024-03-02T08:13:56;100069.63;;;9.28;100.00
31538;BME280;18147;51.952;6.146;2024-03-02T08:16:22;100077.09;;;9.36;100.00
31538;BME280;18147;51.952;6.146;2024-03-02T08:18:49;100072.09;;;9.44;100.00
31538;BME280;18147;51.952;6.146;2024-03-02T08:21:15;100069.81;;;9.51;100.00
31538;BME280;18147;51.952;6.146;2024-03-02T08:23:40;100075.41;;;9.35;100.00
31538;BME280;18147;51.952;6.146;2024-03-02T08:26:08;100070.88;;;9.61;100.00
31538;BME280;18147;51.952;6.146;2024-03-02T08:28:34;100070.34;;;9.56;100.00
31538;BME280;18147;51.952;6.146;2024-03-02T08:30:59;100064.03;;;9.70;100.00
31538;BME280;18147;51.952;6.146;2024-03-02T08:33:24;100063.19;;;9.69;100.00
31538;BME280;18147;51.952;6.146;2024-03-02T08:35:50;100068.84;;;9.65;100.00
31538;BME280;18147;51.952;6.146;2024-03-02T08:38:16;100063.91;;;9.71;100.00
31538;BME280;18147;51.952;6.146;2024-03-02T08:40:41;100069.50;;;9.92;100.00
31538;BME280;18147;51.952;6.146;2024-03-02T08:43:07;100072.63;;;10.10;100.00
31538;BME280;18147;51.952;6.146;2024-03-02T08:45:32;100072.81;;;9.83;100.00
31538;BME280;18147;51.952;6.146;2024-03-02T08:47:59;100069.13;;;10.09;100.00
31538;BME280;18147;51.952;6.146;2024-03-02T08:50:24;100069.06;;;10.22;100.00
31538;BME280;18147;51.952;6.146;2024-03-02T08:52:50;100081.22;;;10.26;100.00
31538;BME280;18147;51.952;6.146;2024-03-02T08:55:15;100077.28;;;10.19;100.00
31538;BME280;18147;51.952;6.146;2024-03-02T08:57:41;100082.91;;;10.27;100.00
31538;BME280;18147;51.952;6.146;2024-03-02T09:00:07;100078.44;;;10.28;100.00
31538;BME280;18147;51.952;6.146;2024-03-02T09:02:33;100081.53;;;10.22;100.00
31538;BME280;18147;51.952;6.146;2024-03-02T09:04:59;100077.25;;;10.32;100.00
31538;BME280;18147;51.952;6.146;2024-03-02T09:07:24;100087.19;;;10.30;100.00
31538;BME280;18147;51.952;6.146;2024-03-02T09:09:50;100082.75;;;10.42;100.00
31538;BME280;18147;51.952;6.146;2024-03-02T09:12:19;100084.09;;;10.47;100.00
31538;BME280;18147;51.952;6.146;2024-03-02T09:14:45;100074.41;;;10.46;100.00
31538;BME280;18147;51.952;6.146;2024-03-02T09:17:11;100073.13;;;10.63;100.00
31538;BME280;18147;51.952;6.146;2024-03-02T09:19:37;100078.03;;;10.80;100.00
31538;BME280;18147;51.952;6.146;2024-03-02T09:22:03;100089.78;;;10.89;100.00
31538;BME280;18147;51.952;6.146;2024-03-02T09:24:31;100090.38;;;10.81;100.00
31538;BME280;18147;51.952;6.146;2024-03-02T09:26:56;100081.22;;;10.97;100.00
31538;BME280;18147;51.952;6.146;2024-03-02T09:29:22;100075.09;;;10.83;100.00
31538;BME280;18147;51.952;6.146;2024-03-02T09:31:47;100077.13;;;10.69;100.00
31538;BME280;18147;51.952;6.146;2024-03-02T09:34:12;100068.94;;;10.94;100.00
31538;BME280;18147;51.952;6.146;2024-03-02T09:36:39;100068.59;;;10.99;100.00
31538;BME280;18147;51.952;6.146;2024-03-02T09:39:05;100080.63;;;11.15;100.00
31538;BME280;18147;51.952;6.146;2024-03-02T09:41:33;100081.69;;;11.02;100.00
31538;BME280;18147;51.952;6.146;2024-03-02T09:43:58;100088.28;;;11.20;100.00
31538;BME280;18147;51.952;6.146;2024-03-02T09:46:24;100079.31;;;11.21;100.00
31538;BME280;18147;51.952;6.146;2024-03-02T09:48:49;100086.06;;;11.14;100.00
31538;BME280;18147;51.952;6.146;2024-03-02T09:51:15;100081.63;;;11.14;100.00
31538;BME280;18147;51.952;6.146;2024-03-02T09:53:45;100078.19;;;11.12;100.00
31538;BME280;18147;51.952;6.146;2024-03-02T09:56:10;100083.78;;;11.21;100.00
31538;BME280;18147;51.952;6.146;2024-03-02T09:58:36;100082.22;;;11.40;100.00
31538;BME280;18147;51.952;6.146;2024-03-02T10:01:01;100077.22;;;11.58;100.00
31538;BME280;18147;51.952;6.146;2024-03-02T10:03:28;100076.28;;;11.48;100.00
31538;BME280;18147;51.952;6.146;2024-03-02T10:05:54;100072.63;;;11.49;100.00
31538;BME280;18147;51.952;6.146;2024-03-02T10:08:20;100070.81;;;11.50;100.00
31538;BME280;18147;51.952;6.146;2024-03-02T10:10:45;100060.72;;;11.53;100.00
31538;BME280;18147;51.952;6.146;2024-03-02T10:13:12;100073.13;;;11.65;100.00
31538;BME280;18147;51.952;6.146;2024-03-02T10:15:38;100068.00;;;11.62;100.00
31538;BME280;18147;51.952;6.146;2024-03-02T10:18:11;100072.28;;;11.65;100.00
31538;BME280;18147;51.952;6.146;2024-03-02T10:20:38;100075.88;;;11.64;100.00
31538;BME280;18147;51.952;6.146;2024-03-02T10:23:14;100066.44;;;11.82;100.00
31538;BME280;18147;51.952;6.146;2024-03-02T10:25:42;100068.72;;;11.76;100.00
31538;BME280;18147;51.952;6.146;2024-03-02T10:28:07;100075.06;;;11.86;100.00
31538;BME280;18147;51.952;6.146;2024-03-02T10:30:33;100069.06;;;11.93;100.00
31538;BME280;18147;51.952;6.146;2024-03-02T10:33:00;100073.38;;;11.85;100.00
31538;BME280;18147;51.952;6.146;2024-03-02T10:35:26;100078.19;;;12.02;100.00
31538;BME280;18147;51.952;6.146;2024-03-02T10:37:53;100072.31;;;12.08;100.00
31538;BME280;18147;51.952;6.146;2024-03-02T10:40:22;100074.38;;;12.05;100.00
31538;BME280;18147;51.952;6.146;2024-03-02T10:42:50;100074.09;;;12.19;100.00
31538;BME280;18147;51.952;6.146;2024-03-02T10:45:16;100071.06;;;12.24;100.00
31538;BME280;18147;51.952;6.146;2024-03-02T10:47:44;100064.81;;;12.34;100.00
31538;BME280;18147;51.952;6.146;2024-03-02T10:50:11;100061.94;;;12.26;100.00
31538;BME280;18147;51.952;6.146;2024-03-02T10:52:37;100059.00;;;12.29;100.00
31538;BME280;18147;51.952;6.146;2024-03-02T10:55:04;100053.03;;;12.37;100.00
31538;BME280;18147;51.952;6.146;2024-03-02T10:57:50;100058.25;;;12.38;100.00
31538;BME280;18147;51.952;6.146;2024-03-02T11:00:15;100058.38;;;11.93;100.00
31538;BME280;18147;51.952;6.146;2024-03-02T11:02:51;100051.06;;;12.39;100.00
31538;BME280;18147;51.952;6.146;2024-03-02T11:05:25;100055.41;;;12.51;100.00
31538;BME280;18147;51.952;6.146;2024-03-02T11:07:57;100048.75;;;12.46;100.00
31538;BME280;18147;51.952;6.146;2024-03-02T11:10:27;100056.78;;;12.46;100.00
31538;BME280;18147;51.952;6.146;2024-03-02T11:12:57;100050.16;;;12.50;100.00
31538;BME280;18147;51.952;6.146;2024-03-02T11:15:24;100042.66;;;12.43;100.00
31538;BME280;18147;51.952;6.146;2024-03-02T11:17:51;100039.16;;;12.43;100.00
31538;BME280;18147;51.952;6.146;2024-03-02T11:20:18;100046.69;;;12.38;100.00
31538;BME280;18147;51.952;6.146;2024-03-02T11:22:45;100048.75;;;12.13;100.00
31538;BME280;18147;51.952;6.146;2024-03-02T11:25:27;100039.59;;;12.27;100.00
31538;BME280;18147;51.952;6.146;2024-03-02T11:33:03;100036.75;;;12.61;98.25
31538;BME280;18147;51.952;6.146;2024-03-02T11:35:36;100034.31;;;12.58;98.03
31538;BME280;18147;51.952;6.146;2024-03-02T11:38:02;100028.06;;;12.68;95.81
31538;BME280;18147;51.952;6.146;2024-03-02T11:40:29;100025.00;;;12.73;97.25
31538;BME280;18147;51.952;6.146;2024-03-02T11:42:55;100033.94;;;12.62;93.32
31538;BME280;18147;51.952;6.146;2024-03-02T11:45:25;100027.94;;;12.91;96.45
31538;BME280;18147;51.952;6.146;2024-03-02T11:47:53;100031.34;;;12.72;93.90
31538;BME280;18147;51.952;6.146;2024-03-02T11:52:55;100017.22;;;12.70;95.05
31538;BME280;18147;51.952;6.146;2024-03-02T11:55:21;100024.72;;;12.34;93.78
31538;BME280;18147;51.952;6.146;2024-03-02T11:57:48;100017.38;;;12.48;94.98
31538;BME280;18147;51.952;6.146;2024-03-02T12:00:18;100015.94;;;12.64;97.71
31538;BME280;18147;51.952;6.146;2024-03-02T12:02:46;100013.19;;;12.96;97.33
31538;BME280;18147;51.952;6.146;2024-03-02T12:05:15;100011.94;;;12.59;100.00
31538;BME280;18147;51.952;6.146;2024-03-02T12:07:42;100014.16;;;12.33;99.38
31538;BME280;18147;51.952;6.146;2024-03-02T12:10:08;100024.25;;;11.97;99.63
31538;BME280;18147;51.952;6.146;2024-03-02T12:12:34;100007.28;;;12.51;100.00
31538;BME280;18147;51.952;6.146;2024-03-02T12:14:59;99998.97;;;12.54;98.86
31538;BME280;18147;51.952;6.146;2024-03-02T12:17:26;100007.56;;;12.16;96.10
31538;BME280;18147;51.952;6.146;2024-03-02T12:19:51;100001.44;;;12.25;99.03
31538;BME280;18147;51.952;6.146;2024-03-02T12:22:18;100001.91;;;12.30;100.00
31538;BME280;18147;51.952;6.146;2024-03-02T12:24:44;99995.78;;;12.81;99.48
31538;BME280;18147;51.952;6.146;2024-03-02T12:27:14;99998.22;;;12.94;94.42
31538;BME280;18147;51.952;6.146;2024-03-02T12:29:40;99995.63;;;13.13;96.28
31538;BME280;18147;51.952;6.146;2024-03-02T12:32:06;99998.16;;;13.05;95.14
31538;BME280;18147;51.952;6.146;2024-03-02T12:34:32;99986.84;;;12.71;95.18
31538;BME280;18147;51.952;6.146;2024-03-02T12:36:58;99985.59;;;12.75;97.28
31538;BME280;18147;51.952;6.146;2024-03-02T12:39:23;99993.41;;;12.88;99.01
31538;BME280;18147;51.952;6.146;2024-03-02T12:41:50;99989.28;;;12.84;98.64
31538;BME280;18147;51.952;6.146;2024-03-02T12:44:16;99994.88;;;13.23;100.00
31538;BME280;18147;51.952;6.146;2024-03-02T12:46:43;99992.84;;;12.63;96.59
31538;BME280;18147;51.952;6.146;2024-03-02T12:49:13;99994.34;;;12.56;95.06
31538;BME280;18147;51.952;6.146;2024-03-02T12:51:40;99994.19;;;12.16;96.59
31538;BME280;18147;51.952;6.146;2024-03-02T12:54:09;99993.00;;;12.30;96.79
31538;BME280;18147;51.952;6.146;2024-03-02T12:56:40;99992.38;;;12.79;98.16